• Join FlightAware (Why Join?)
  • Login
  • US Flag 
11:16PM EDT


 

Airport Tracker/Info


-or-


 

Live Flight TrackerFlight Track Log ✈ N40F ✈ 17-Dec-2013 ✈ KDPA - KSPI

Flight Track Log - Related Links

Times and Time Zones

All times are in EST time to prevent confusion due to time zone crossing. See the N40F flight status page for this flight to view local times or setup timezone preferences in your user account.

Time Position Orientation Groundspeed Altitude Reporting Facility
EST Latitude Longitude Course Direction KTS MPH feet Rate Location/Type
05:07PM 41.9167 -88.2833 173° South 98 113 2,000  Level Chicago TRACON
05:08PM 41.9000 -88.3000 217° Southwest 135 155 2,900 480 Climbing Chicago TRACON
05:09PM 41.8606 -88.2919 171° South 160 184 3,000 240 Climbing Chicago Center
05:10PM 41.8028 -88.2778 170° South 169 194 3,500 660 Climbing Chicago Center
05:11PM 41.7606 -88.2664 169° South 165 190 4,400 720 Climbing Chicago Center
05:12PM 41.6800 -88.2161 173° South  Level FlightAware Approximate
05:12PM 41.7189 -88.2550 168° South 158 182 5,000  Level Chicago Center
05:13PM 41.6733 -88.2436 169° South 161 185 5,000  Level Chicago Center
05:14PM 41.6222 -88.2331 171° South 176 203 5,000 60 Level Chicago Center
05:15PM 41.5625 -88.2192 170° South 183 211 5,200 300 Climbing Chicago Center
05:16PM 41.5156 -88.2069 169° South 176 203 5,700 420 Climbing Chicago Center
05:17PM 41.4694 -88.1969 171° South 173 199 6,100 60 Climbing Chicago Center
05:18PM 41.4197 -88.1856 170° South 180 207 5,900 -120 Descending Chicago Center
05:19PM 41.3678 -88.2042 195° South 167 192 5,900  Level Chicago Center
05:20PM 41.3294 -88.2378 213° Southwest 163 188 5,900  Level Chicago Center
05:21PM 41.2931 -88.2717 215° Southwest 162 186 5,900  Level Chicago Center
05:22PM 41.2583 -88.3097 219° Southwest 162 186 5,900  Level Chicago Center
05:23PM 41.2208 -88.3444 215° Southwest 163 188 5,900  Level Chicago Center
05:24PM 41.1783 -88.3881 218° Southwest 163 188 5,900  Level Chicago Center
05:25PM 41.1428 -88.4233 217° Southwest 161 185 5,900  Level Chicago Center
05:26PM 41.1053 -88.4583 215° Southwest 163 188 5,900 60 Level Chicago Center
05:27PM 41.0700 -88.4956 219° Southwest 163 188 6,100 60 Climbing Chicago Center
05:28PM 41.0336 -88.5308 216° Southwest 163 188 6,100  Level Chicago Center
05:29PM 40.9972 -88.5669 217° Southwest 163 188 6,100  Level Chicago Center
05:31PM 40.9533 -88.6103 217° Southwest 165 190 6,100  Level Chicago Center
05:32PM 40.9150 -88.6447 214° Southwest 166 191 6,100  Level Chicago Center
05:33PM 40.8786 -88.6831 219° Southwest 167 192 6,100  Level Chicago Center
05:34PM 40.8414 -88.7194 216° Southwest 166 191 6,200  Climbing Chicago Center
05:35PM 40.8028 -88.7542 214° Southwest 169 194 6,100 -60 Descending Chicago Center
05:36PM 40.7603 -88.8008 220° Southwest 166 191 6,100  Level Chicago Center
05:37PM 40.7211 -88.8356 214° Southwest 169 194 6,100  Level Chicago Center
05:38PM 40.6861 -88.8703 217° Southwest 169 194 6,100  Level Chicago Center
05:39PM 40.6492 -88.9058 216° Southwest 166 191 6,100  Level Chicago Center
05:40PM 40.6117 -88.9408 215° Southwest 165 190 6,200  Climbing Chicago Center
05:41PM 40.5672 -88.9836 216° Southwest 165 190 6,100 -60 Descending Chicago Center
05:42PM 40.5306 -89.0219 218° Southwest 167 192 6,100  Level Chicago Center
05:43PM 40.4931 -89.0569 215° Southwest 166 191 6,100  Level Chicago Center
05:44PM 40.4558 -89.0922 216° Southwest 165 190 6,100  Level Chicago Center
05:45PM 40.4192 -89.1289 217° Southwest 165 190 6,100  Level Chicago Center
05:46PM 40.3806 -89.1631 214° Southwest 166 191 6,100  Level Chicago Center
05:47PM 40.3364 -89.2058 216° Southwest 165 190 6,100  Level Chicago Center
05:48PM 40.2989 -89.2433 217° Southwest 166 191 6,100  Level Chicago Center
05:49PM 40.2614 -89.2769 214° Southwest 165 190 6,100 -120 Level Chicago Center
05:50PM 40.2256 -89.3131 218° Southwest 163 188 5,900 -300 Descending Chicago Center
05:51PM 40.1875 -89.3511 217° Southwest 169 194 5,600 -300 Descending Chicago Center
05:52PM 40.1481 -89.3881 216° Southwest 172 198 5,300 -300 Descending Chicago Center
05:53PM 40.1017 -89.4333 217° Southwest 171 197 5,000 -360 Descending Kansas City Center
05:54PM 40.0639 -89.4708 217° Southwest 170 196 4,600 -480 Descending Kansas City Center
05:55PM 40.0172 -89.4964 203° Southwest 184 212 4,100 -540 Descending Kansas City Center
05:57PM 39.9669 -89.5333 209° Southwest 178 205 3,500 -540 Descending Kansas City Center
05:58PM 39.9361 -89.5689 221° Southwest 164 189 3,100 -600 Descending Kansas City Center
05:59PM 39.9139 -89.5950 222° Southwest 137 158 2,300 -660 Descending Kansas City Center
06:00PM 39.8939 -89.6217 226° Southwest 117 135 1,800 -540 Descending Kansas City Center
06:01PM 39.8725 -89.6464 222° Southwest 109 125 1,200 -360 Descending Kansas City Center
06:02PM 39.8511 -89.6719 223° Southwest 108 124 1,100 -120 Descending Kansas City Center